Time;durP1;ratioP1;P1;durP2;ratioP2;P2;SDS_P1;SDS_P2;PMS_P1;PMS_P2;Temp;Humidity;BMP_temperature;BMP_pressure;BME280_temperature;BME280_humidity;BME280_pressure;Samples;Min_cycle;Max_cycle;Signal;HPM_P1;HPM_P2
2022/07/01 00:19:05;;;;;;;;;;;;;;;;;;;;;
2022/07/01 00:28:35;;;;;;;9.50;6.53;;;;;;;;;;4975463;28;20106;-81
2022/07/01 00:31:42;;;;;;;11.15;6.82;;;;;;;;;;4987422;28;20050;-81
2022/07/01 00:34:34;;;;;;;8.07;7.22;;;;;;;;;;4986833;28;20039;-81
2022/07/01 00:50:32;;;;;;;;;;;;;;;;;;;;;
2022/07/01 01:38:56;;;;;;;5.55;5.07;;;;;;;;;;4804085;29;20214;-81
2022/07/01 02:25:06;;;;;;;;;;;;;;;;;;;;;
2022/07/01 02:28:06;;;;;;;;;;;;;;;;;;;;;
2022/07/01 02:31:01;;;;;;;6.90;6.30;;;;;;;;;;4855542;29;20484;-81
2022/07/01 02:40:09;;;;;;;7.32;6.57;;;;;;;;;;4840067;29;20048;-81
2022/07/01 02:43:10;;;;;;;;;;;;;;;;;;;;;
2022/07/01 03:08:26;;;;;;;6.43;5.93;;;;;;;;;;4791675;29;20081;-81
2022/07/01 03:14:26;;;;;;;12.32;7.63;;;;;;;;;;4784844;30;20035;-81
2022/07/01 03:17:31;;;;;;;;;;;;;;;;;;;;;
2022/07/01 03:20:52;;;;;;;;;;;;;;;;;;;;;
2022/07/01 03:40:03;;;;;;;6.40;5.80;;;;;;;;;;4790655;29;20032;-80
2022/07/01 03:46:31;;;;;;;;;;;;;;;;;;;;;
2022/07/01 04:02:24;;;;;;;7.53;6.50;;;;;;;;;;4832587;29;20037;-81
2022/07/01 04:11:43;;;;;;;8.07;6.15;;;;;;;;;;4866701;29;20080;-81
2022/07/01 04:14:17;;;;;;;8.85;6.40;;;;;;;;;;4890443;29;20037;-81
2022/07/01 04:22:55;;;;;;;;;;;;;;;;;;;;;
2022/07/01 04:25:25;;;;;;;44.80;40.08;;;;;;;;;;4857620;29;20041;-80
2022/07/01 04:28:13;;;;;;;9.82;7.90;;;;;;;;;;4857834;29;20048;-82
2022/07/01 04:30:42;;;;;;;13.48;12.07;;;;;;;;;;4850772;29;20053;-81
2022/07/01 04:36:20;;;;;;;10.45;9.30;;;;;;;;;;4857500;29;20040;-81
2022/07/01 04:38:46;;;;;;;9.13;7.65;;;;;;;;;;4931040;29;20054;-83
2022/07/01 04:44:44;;;;;;;9.30;8.23;;;;;;;;;;4934078;29;20485;-81
2022/07/01 04:53:33;;;;;;;6.63;6.13;;;;;;;;;;4939813;28;20045;-84
2022/07/01 05:15:11;;;;;;;7.10;5.70;;;;;;;;;;4823519;29;20386;-80
2022/07/01 05:23:04;;;;;;;11.25;9.27;;;;;;;;;;4946092;28;20101;-81
2022/07/01 05:25:31;;;;;;;7.20;6.30;;;;;;;;;;5015254;28;20040;-82
2022/07/01 05:27:57;;;;;;;6.53;5.93;;;;;;;;;;4981067;28;20073;-83
2022/07/01 05:30:23;;;;;;;7.88;6.35;;;;;;;;;;5025524;28;20033;-83
2022/07/01 05:32:50;;;;;;;7.82;6.22;;;;;;;;;;5034122;28;20455;-80
2022/07/01 05:35:16;;;;;;;16.45;12.23;;;;;;;;;;5016591;28;20029;-86
2022/07/01 05:37:42;;;;;;;15.52;13.23;;;;;;;;;;5016672;28;20083;-84
2022/07/01 05:40:28;;;;;;;14.13;11.75;;;;;;;;;;5012472;28;20072;-85
2022/07/01 05:42:57;;;;;;;9.77;8.77;;;;;;;;;;5026794;28;20072;-82
2022/07/01 05:45:24;;;;;;;10.77;7.18;;;;;;;;;;5029630;28;20018;-84
2022/07/01 05:47:50;;;;;;;10.05;7.38;;;;;;;;;;5032171;28;20404;-84
2022/07/01 05:50:16;;;;;;;9.25;6.60;;;;;;;;;;5033165;28;20374;-83
2022/07/01 05:52:45;;;;;;;7.47;6.68;;;;;;;;;;5011677;28;20030;-82
2022/07/01 05:55:12;;;;;;;10.45;6.88;;;;;;;;;;5031001;28;20105;-79
2022/07/01 05:57:38;;;;;;;8.27;7.50;;;;;;;;;;5032770;28;20108;-80
2022/07/01 06:00:04;;;;;;;10.15;7.25;;;;;;;;;;5030744;28;20029;-83
2022/07/01 06:02:33;;;;;;;10.00;8.70;;;;;;;;;;5002493;28;20469;-85
2022/07/01 06:05:03;;;;;;;9.95;8.43;;;;;;;;;;5028572;28;20086;-82
2022/07/01 06:07:29;;;;;;;8.10;7.20;;;;;;;;;;4992711;28;20057;-77
2022/07/01 06:09:56;;;;;;;14.57;12.63;;;;;;;;;;4999307;28;20607;-83
2022/07/01 06:12:24;;;;;;;56.42;30.48;;;;;;;;;;5027694;28;20045;-83
2022/07/01 06:14:50;;;;;;;124.75;52.42;;;;;;;;;;5020092;28;20551;-82
2022/07/01 06:17:17;;;;;;;92.35;44.15;;;;;;;;;;5032305;28;20057;-81
2022/07/01 06:19:43;;;;;;;59.78;29.55;;;;;;;;;;5028202;28;20044;-80
2022/07/01 06:22:09;;;;;;;39.65;24.25;;;;;;;;;;5032015;28;20068;-84
2022/07/01 06:24:35;;;;;;;40.00;24.67;;;;;;;;;;5032613;28;20034;-87
2022/07/01 06:27:03;;;;;;;39.70;23.88;;;;;;;;;;5028254;28;20113;-81
2022/07/01 06:29:30;;;;;;;33.90;22.52;;;;;;;;;;5016306;28;20423;-85
2022/07/01 06:31:56;;;;;;;19.40;16.25;;;;;;;;;;5013389;28;20397;-82
2022/07/01 06:34:23;;;;;;;14.10;7.10;;;;;;;;;;5031902;28;20033;-81
2022/07/01 06:36:49;;;;;;;47.00;23.48;;;;;;;;;;5029797;28;20026;-82
2022/07/01 06:39:15;;;;;;;86.95;38.63;;;;;;;;;;5013733;28;20029;-79
2022/07/01 06:41:41;;;;;;;191.48;80.15;;;;;;;;;;5032102;28;20044;-79
2022/07/01 06:44:07;;;;;;;96.93;52.33;;;;;;;;;;5031731;28;20111;-80
2022/07/01 06:46:33;;;;;;;67.50;35.80;;;;;;;;;;5031070;28;20104;-78
2022/07/01 06:49:00;;;;;;;62.92;30.60;;;;;;;;;;5031503;28;20021;-77
2022/07/01 06:51:26;;;;;;;30.20;16.77;;;;;;;;;;5031782;28;20033;-82
2022/07/01 06:53:52;;;;;;;50.85;28.58;;;;;;;;;;5031513;28;20510;-85
2022/07/01 06:56:18;;;;;;;47.15;25.40;;;;;;;;;;5032176;28;20068;-85
2022/07/01 06:58:45;;;;;;;37.53;19.35;;;;;;;;;;5028852;28;20100;-83
2022/07/01 07:01:11;;;;;;;35.10;26.35;;;;;;;;;;5029308;28;20033;-83
2022/07/01 07:03:38;;;;;;;18.83;14.07;;;;;;;;;;5029767;28;20044;-81
2022/07/01 07:06:04;;;;;;;17.67;11.52;;;;;;;;;;5027143;28;20033;-82
2022/07/01 07:08:31;;;;;;;14.15;10.43;;;;;;;;;;5021787;28;20065;-85
2022/07/01 07:10:58;;;;;;;29.58;26.80;;;;;;;;;;5010923;28;20034;-82
2022/07/01 07:13:27;;;;;;;17.15;13.82;;;;;;;;;;5018594;28;20042;-82
2022/07/01 07:15:53;;;;;;;10.32;9.32;;;;;;;;;;5003540;28;20030;-82
2022/07/01 07:18:20;;;;;;;17.35;15.68;;;;;;;;;;5004687;28;20065;-80
2022/07/01 07:20:47;;;;;;;8.88;7.22;;;;;;;;;;5006537;28;20548;-78
2022/07/01 07:23:14;;;;;;;50.70;25.10;;;;;;;;;;4999345;28;20026;-79
2022/07/01 07:25:40;;;;;;;17.35;9.25;;;;;;;;;;5011366;28;20041;-82
2022/07/01 07:28:06;;;;;;;52.47;22.10;;;;;;;;;;5010575;28;20030;-83
2022/07/01 07:30:32;;;;;;;10.75;8.02;;;;;;;;;;5009709;28;20519;-82
2022/07/01 07:32:58;;;;;;;90.50;40.08;;;;;;;;;;5009764;28;20116;-82
2022/07/01 07:35:24;;;;;;;146.52;62.95;;;;;;;;;;5012024;28;20463;-82
2022/07/01 07:37:58;;;;;;;134.48;58.15;;;;;;;;;;5030418;28;20025;-81
2022/07/01 07:40:24;;;;;;;89.72;41.47;;;;;;;;;;4974429;28;20042;-81
2022/07/01 07:42:50;;;;;;;58.53;26.67;;;;;;;;;;5021371;28;20030;-81
2022/07/01 07:45:17;;;;;;;17.73;9.07;;;;;;;;;;5010499;28;20137;-81
2022/07/01 07:47:44;;;;;;;137.27;62.50;;;;;;;;;;5011047;28;20049;-81
2022/07/01 07:50:10;;;;;;;103.95;48.75;;;;;;;;;;4993395;28;20037;-82
2022/07/01 07:52:36;;;;;;;20.90;12.73;;;;;;;;;;4995501;28;20042;-81
2022/07/01 07:55:02;;;;;;;60.80;34.60;;;;;;;;;;5003582;28;20072;-83
2022/07/01 07:57:29;;;;;;;17.67;11.02;;;;;;;;;;4974269;28;20548;-83
2022/07/01 07:59:55;;;;;;;8.40;6.47;;;;;;;;;;5003624;28;20030;-81
2022/07/01 08:02:24;;;;;;;72.78;35.65;;;;;;;;;;4984850;28;20080;-82
2022/07/01 08:04:50;;;;;;;38.55;29.95;;;;;;;;;;5007945;28;20038;-82
2022/07/01 08:07:16;;;;;;;152.43;100.80;;;;;;;;;;5009389;28;20045;-84
2022/07/01 08:09:46;;;;;;;65.72;41.13;;;;;;;;;;4982197;28;20421;-81
2022/07/01 08:12:12;;;;;;;58.78;35.15;;;;;;;;;;5008843;28;20061;-83
2022/07/01 08:14:38;;;;;;;23.63;14.77;;;;;;;;;;5011022;28;20481;-86
2022/07/01 08:17:27;;;;;;;17.75;16.02;;;;;;;;;;5009428;28;20036;-86
2022/07/01 08:19:53;;;;;;;37.25;24.08;;;;;;;;;;5012430;28;20504;-82
2022/07/01 08:22:47;;;;;;;20.67;13.18;;;;;;;;;;5008669;28;20507;-84
2022/07/01 08:25:13;;;;;;;10.82;8.93;;;;;;;;;;4965646;28;20087;-80
2022/07/01 08:27:43;;;;;;;7.85;6.28;;;;;;;;;;5014397;28;20432;-80
2022/07/01 08:30:10;;;;;;;16.38;11.93;;;;;;;;;;5014813;28;20041;-78
2022/07/01 08:32:36;;;;;;;9.43;8.45;;;;;;;;;;5005747;28;20079;-82
2022/07/01 08:35:02;;;;;;;5.60;5.10;;;;;;;;;;5009742;28;20034;-81
2022/07/01 08:37:28;;;;;;;19.35;11.60;;;;;;;;;;5011092;28;20127;-81
2022/07/01 08:39:54;;;;;;;98.65;50.80;;;;;;;;;;5009266;28;20417;-81
2022/07/01 08:42:20;;;;;;;82.68;40.17;;;;;;;;;;5013618;28;20180;-82
2022/07/01 08:44:46;;;;;;;16.10;11.20;;;;;;;;;;5014377;28;20030;-81
2022/07/01 08:47:15;;;;;;;13.32;10.77;;;;;;;;;;4992002;28;20042;-81
2022/07/01 08:49:42;;;;;;;13.05;10.57;;;;;;;;;;4992298;28;20084;-81
2022/07/01 08:52:09;;;;;;;67.75;36.33;;;;;;;;;;4982947;28;20088;-81
2022/07/01 08:54:37;;;;;;;32.05;19.00;;;;;;;;;;4994424;28;20033;-84
2022/07/01 08:57:07;;;;;;;54.90;29.83;;;;;;;;;;4994589;28;20026;-80
2022/07/01 08:59:34;;;;;;;17.67;11.65;;;;;;;;;;4979659;28;20032;-78
2022/07/01 09:02:01;;;;;;;32.70;19.50;;;;;;;;;;5013662;28;20052;-83
2022/07/01 09:04:28;;;;;;;19.80;11.85;;;;;;;;;;5006755;28;20030;-84
2022/07/01 09:07:11;;;;;;;10.57;7.90;;;;;;;;;;5008684;28;20042;-87
2022/07/01 09:09:38;;;;;;;74.47;40.10;;;;;;;;;;5024366;28;20042;-84
2022/07/01 09:12:04;;;;;;;65.07;35.88;;;;;;;;;;5027764;28;20404;-85
2022/07/01 09:14:31;;;;;;;22.95;14.27;;;;;;;;;;5029244;28;20096;-83
2022/07/01 09:16:59;;;;;;;20.10;12.85;;;;;;;;;;5028827;28;20488;-80
2022/07/01 09:19:26;;;;;;;32.63;17.60;;;;;;;;;;5009319;28;20034;-82
2022/07/01 09:22:10;;;;;;;20.30;12.52;;;;;;;;;;5033327;28;20044;-84
2022/07/01 09:24:36;;;;;;;14.18;10.18;;;;;;;;;;5033053;28;20094;-83
2022/07/01 09:29:58;;;;;;;22.60;20.55;;;;;;;;;;5033428;28;20499;-80
2022/07/01 09:32:24;;;;;;;11.57;6.40;;;;;;;;;;5032513;28;20029;-77
2022/07/01 09:34:51;;;;;;;6.05;5.32;;;;;;;;;;5032454;28;20061;-81
2022/07/01 09:37:19;;;;;;;6.65;5.90;;;;;;;;;;5030077;28;20029;-79
2022/07/01 09:39:52;;;;;;;6.40;5.90;;;;;;;;;;5024881;28;20121;-79
2022/07/01 09:42:22;;;;;;;7.18;6.50;;;;;;;;;;5013513;28;20032;-81
2022/07/01 09:45:09;;;;;;;7.70;6.97;;;;;;;;;;5031549;28;20072;-81
2022/07/01 09:47:36;;;;;;;7.85;5.85;;;;;;;;;;5032207;28;20037;-79
2022/07/01 09:50:03;;;;;;;6.10;5.32;;;;;;;;;;5033207;28;20036;-80
2022/07/01 09:52:30;;;;;;;5.97;5.50;;;;;;;;;;5022230;28;20551;-79
2022/07/01 09:54:58;;;;;;;6.03;5.47;;;;;;;;;;5022343;28;20037;-80
2022/07/01 09:57:24;;;;;;;6.88;6.15;;;;;;;;;;5032598;28;20097;-80
2022/07/01 09:59:51;;;;;;;6.38;5.88;;;;;;;;;;5020653;28;20436;-80
2022/07/01 10:02:21;;;;;;;7.20;5.90;;;;;;;;;;5025611;28;20030;-80
2022/07/01 10:05:06;;;;;;;7.68;6.38;;;;;;;;;;5026837;28;20064;-79
2022/07/01 10:07:51;;;;;;;6.13;5.55;;;;;;;;;;5022185;28;20041;-80
2022/07/01 10:10:17;;;;;;;6.22;5.60;;;;;;;;;;5013250;28;20041;-79
2022/07/01 10:12:44;;;;;;;6.75;5.57;;;;;;;;;;5030296;28;20075;-79
2022/07/01 10:15:12;;;;;;;7.00;6.30;;;;;;;;;;5032544;28;20393;-78
2022/07/01 10:17:41;;;;;;;7.35;6.25;;;;;;;;;;5026223;28;20175;-79
2022/07/01 10:20:12;;;;;;;10.93;6.82;;;;;;;;;;5022075;28;20061;-79
2022/07/01 10:22:39;;;;;;;6.20;5.70;;;;;;;;;;5024078;28;20021;-80
2022/07/01 10:25:23;;;;;;;5.90;5.40;;;;;;;;;;5022464;28;20057;-79
2022/07/01 10:28:08;;;;;;;8.85;5.93;;;;;;;;;;5031131;28;20037;-78
2022/07/01 10:30:34;;;;;;;7.53;6.28;;;;;;;;;;5025698;28;20055;-81
2022/07/01 10:33:00;;;;;;;7.20;6.53;;;;;;;;;;5030849;28;20064;-80
2022/07/01 10:35:27;;;;;;;6.57;5.50;;;;;;;;;;5014460;28;20128;-80
2022/07/01 10:38:00;;;;;;;8.02;6.68;;;;;;;;;;5026664;28;20075;-80
2022/07/01 10:40:45;;;;;;;11.77;7.32;;;;;;;;;;5023204;28;20075;-79
2022/07/01 10:43:16;;;;;;;7.70;5.97;;;;;;;;;;5007017;28;20036;-80
2022/07/01 10:45:43;;;;;;;14.63;7.00;;;;;;;;;;5029869;28;20033;-79
2022/07/01 10:48:30;;;;;;;7.95;6.20;;;;;;;;;;5031708;28;20500;-80
2022/07/01 10:50:56;;;;;;;12.75;11.25;;;;;;;;;;5031742;28;20033;-79
2022/07/01 10:53:22;;;;;;;10.13;7.13;;;;;;;;;;5031711;28;20033;-81
2022/07/01 10:55:50;;;;;;;5.90;5.30;;;;;;;;;;5031970;28;20043;-79
2022/07/01 10:58:18;;;;;;;5.57;4.93;;;;;;;;;;5025284;28;20017;-79
2022/07/01 11:00:45;;;;;;;5.85;4.97;;;;;;;;;;5023911;28;20032;-81
2022/07/01 11:03:16;;;;;;;5.65;5.05;;;;;;;;;;5031454;28;20116;-79
2022/07/01 11:05:42;;;;;;;4.82;4.53;;;;;;;;;;5031732;28;20026;-79
2022/07/01 11:08:12;;;;;;;9.10;6.28;;;;;;;;;;5030781;28;20053;-78
2022/07/01 11:10:39;;;;;;;5.78;5.28;;;;;;;;;;5031752;28;20032;-81
2022/07/01 11:13:05;;;;;;;9.02;8.15;;;;;;;;;;5029413;28;20476;-79
2022/07/01 11:15:32;;;;;;;16.15;14.63;;;;;;;;;;5028836;28;20452;-81
2022/07/01 11:17:58;;;;;;;7.82;5.47;;;;;;;;;;5028619;28;20499;-81
2022/07/01 11:20:25;;;;;;;7.25;5.45;;;;;;;;;;5030611;28;20369;-81
2022/07/01 11:22:54;;;;;;;8.70;6.43;;;;;;;;;;5028935;28;20491;-80
2022/07/01 11:25:20;;;;;;;7.28;5.80;;;;;;;;;;5029102;28;20034;-80
2022/07/01 11:27:47;;;;;;;17.02;11.00;;;;;;;;;;5023041;28;20029;-78
2022/07/01 11:30:14;;;;;;;11.80;10.02;;;;;;;;;;5025078;28;20455;-78
2022/07/01 11:32:42;;;;;;;7.18;5.28;;;;;;;;;;5030769;28;20385;-78
2022/07/01 11:40:49;;;;;;;8.68;7.78;;;;;;;;;;5020168;28;20052;-80
2022/07/01 11:43:19;;;;;;;5.75;4.85;;;;;;;;;;5031358;28;20056;-80
2022/07/01 11:45:45;;;;;;;7.22;6.38;;;;;;;;;;5029516;28;20076;-80
2022/07/01 11:48:12;;;;;;;6.63;5.95;;;;;;;;;;5031467;28;20480;-84
2022/07/01 11:50:38;;;;;;;59.13;39.90;;;;;;;;;;5013982;28;20492;-83
2022/07/01 11:53:04;;;;;;;50.80;29.95;;;;;;;;;;5031475;28;20411;-84
2022/07/01 11:55:30;;;;;;;12.93;8.75;;;;;;;;;;5029525;28;20029;-88
2022/07/01 11:58:02;;;;;;;9.40;7.70;;;;;;;;;;5031344;28;20025;-86
2022/07/01 12:00:33;;;;;;;14.35;11.15;;;;;;;;;;5017429;28;20034;-80
2022/07/01 12:02:59;;;;;;;5.18;4.70;;;;;;;;;;5029150;28;20025;-79
2022/07/01 12:05:25;;;;;;;7.35;6.70;;;;;;;;;;5031804;28;20037;-78
2022/07/01 12:07:51;;;;;;;7.28;4.28;;;;;;;;;;5031732;28;20044;-80
2022/07/01 12:10:17;;;;;;;4.57;4.13;;;;;;;;;;5020742;28;20495;-81
2022/07/01 12:12:43;;;;;;;4.70;4.22;;;;;;;;;;5015229;28;20033;-80
2022/07/01 12:15:14;;;;;;;5.97;4.47;;;;;;;;;;5032156;28;20040;-80
2022/07/01 12:17:40;;;;;;;5.20;4.80;;;;;;;;;;5031040;28;20108;-79
2022/07/01 12:20:07;;;;;;;4.65;4.18;;;;;;;;;;5032164;28;20030;-80
2022/07/01 12:22:33;;;;;;;8.20;5.65;;;;;;;;;;5027251;28;20034;-80
2022/07/01 12:25:06;;;;;;;5.13;4.72;;;;;;;;;;5031246;28;20473;-78
2022/07/01 12:27:32;;;;;;;;;;;;;;;;;;5031750;28;20481;-80
2022/07/01 12:29:58;;;;;;;4.88;4.00;;;;;;;;;;5017669;28;19956;-81
2022/07/01 12:32:26;;;;;;;3.85;3.47;;;;;;;;;;5009017;28;20061;-81
2022/07/01 12:34:55;;;;;;;5.07;3.92;;;;;;;;;;5024256;28;20116;-78
2022/07/01 12:37:40;;;;;;;4.22;3.88;;;;;;;;;;5012385;28;20034;-79
2022/07/01 12:40:21;;;;;;;5.97;5.47;;;;;;;;;;4994653;28;20379;-80
2022/07/01 12:42:47;;;;;;;7.43;6.10;;;;;;;;;;4991570;28;20034;-78
2022/07/01 12:45:14;;;;;;;4.13;3.78;;;;;;;;;;4992244;28;20535;-77
2022/07/01 12:47:41;;;;;;;6.55;4.80;;;;;;;;;;5008740;28;20049;-80
2022/07/01 12:50:13;;;;;;;4.18;3.67;;;;;;;;;;5016689;28;20037;-82
2022/07/01 12:52:43;;;;;;;5.07;3.92;;;;;;;;;;5022905;28;20034;-81
2022/07/01 12:55:27;;;;;;;9.65;5.38;;;;;;;;;;5027558;28;20396;-80
2022/07/01 12:57:55;;;;;;;7.55;5.78;;;;;;;;;;5022876;28;20089;-81
2022/07/01 13:00:22;;;;;;;12.90;11.68;;;;;;;;;;5013686;28;20056;-81
2022/07/01 13:02:51;;;;;;;16.10;14.88;;;;;;;;;;5020325;28;20499;-79
2022/07/01 13:05:17;;;;;;;4.30;3.90;;;;;;;;;;5032109;28;20448;-78
2022/07/01 13:07:44;;;;;;;7.03;5.80;;;;;;;;;;5033648;28;20037;-81
2022/07/01 13:10:10;;;;;;;7.57;4.78;;;;;;;;;;5033496;28;20106;-79
2022/07/01 13:12:36;;;;;;;4.95;4.47;;;;;;;;;;5034723;28;20037;-79
2022/07/01 13:15:02;;;;;;;7.50;5.25;;;;;;;;;;5035002;28;20022;-82
2022/07/01 13:17:28;;;;;;;18.63;17.20;;;;;;;;;;5034848;28;20362;-77
2022/07/01 13:19:55;;;;;;;8.13;7.32;;;;;;;;;;5034860;28;20133;-78
2022/07/01 13:22:21;;;;;;;5.80;4.68;;;;;;;;;;5034971;28;20084;-79
2022/07/01 13:24:47;;;;;;;7.72;5.28;;;;;;;;;;5034803;28;20025;-81
2022/07/01 13:27:13;;;;;;;8.70;6.20;;;;;;;;;;5017242;28;20041;-81
2022/07/01 13:29:40;;;;;;;7.03;6.32;;;;;;;;;;5016455;28;20136;-78
2022/07/01 13:32:06;;;;;;;6.45;5.30;;;;;;;;;;5034573;28;20026;-79
2022/07/01 13:34:51;;;;;;;7.75;5.80;;;;;;;;;;5034783;28;20369;-76
2022/07/01 13:37:17;;;;;;;14.57;7.22;;;;;;;;;;5034725;28;20469;-78
2022/07/01 13:39:43;;;;;;;8.77;6.18;;;;;;;;;;5034205;28;20075;-78
2022/07/01 13:42:09;;;;;;;7.60;5.55;;;;;;;;;;5034460;28;20040;-76
2022/07/01 13:44:35;;;;;;;9.07;7.28;;;;;;;;;;5034484;28;20121;-78
2022/07/01 13:47:02;;;;;;;7.72;5.82;;;;;;;;;;5034135;28;20030;-80
2022/07/01 13:49:31;;;;;;;9.18;6.78;;;;;;;;;;5034267;28;20468;-78
2022/07/01 13:51:57;;;;;;;8.05;6.90;;;;;;;;;;5034154;28;20026;-79
2022/07/01 13:54:23;;;;;;;9.75;6.70;;;;;;;;;;5034324;28;20037;-79
2022/07/01 13:56:49;;;;;;;14.48;10.18;;;;;;;;;;5034051;28;20025;-78
2022/07/01 13:59:15;;;;;;;17.17;11.52;;;;;;;;;;5034321;28;20037;-78
2022/07/01 14:01:42;;;;;;;16.58;10.27;;;;;;;;;;5034102;28;20673;-77
2022/07/01 14:04:09;;;;;;;15.50;9.82;;;;;;;;;;5033720;28;20025;-79
2022/07/01 14:06:35;;;;;;;17.58;12.27;;;;;;;;;;5016139;28;20396;-78
2022/07/01 14:09:01;;;;;;;14.95;10.02;;;;;;;;;;5033602;28;20446;-79
2022/07/01 14:11:27;;;;;;;11.05;8.15;;;;;;;;;;5033876;28;20033;-78
2022/07/01 14:13:53;;;;;;;13.75;7.90;;;;;;;;;;5033726;28;20080;-80
2022/07/01 14:16:19;;;;;;;10.10;7.20;;;;;;;;;;5033630;28;20061;-77
2022/07/01 14:18:46;;;;;;;9.48;6.63;;;;;;;;;;5026814;28;20091;-77
2022/07/01 14:21:12;;;;;;;9.75;6.97;;;;;;;;;;5013385;28;20018;-77
2022/07/01 14:23:38;;;;;;;8.45;6.30;;;;;;;;;;5013732;28;20021;-77
2022/07/01 14:26:04;;;;;;;6.70;5.97;;;;;;;;;;5013445;28;20030;-81
2022/07/01 14:28:30;;;;;;;10.32;7.70;;;;;;;;;;5013688;28;20089;-78
2022/07/01 14:30:59;;;;;;;10.45;7.68;;;;;;;;;;5013445;28;20026;-80
2022/07/01 14:33:25;;;;;;;45.10;37.13;;;;;;;;;;5013340;28;20037;-77
2022/07/01 14:35:51;;;;;;;9.23;7.95;;;;;;;;;;5013553;28;20026;-79
2022/07/01 14:38:17;;;;;;;8.60;5.90;;;;;;;;;;5013324;28;20072;-78
2022/07/01 14:40:43;;;;;;;6.80;5.63;;;;;;;;;;5013447;28;20084;-81
2022/07/01 14:43:10;;;;;;;7.53;5.72;;;;;;;;;;5013561;28;20134;-78
2022/07/01 14:45:38;;;;;;;6.28;4.90;;;;;;;;;;5013640;28;20042;-78
2022/07/01 14:48:04;;;;;;;8.90;5.47;;;;;;;;;;5013038;28;20042;-79
2022/07/01 14:50:31;;;;;;;12.02;6.72;;;;;;;;;;5013240;28;20038;-79
2022/07/01 14:52:57;;;;;;;12.07;6.38;;;;;;;;;;5013371;28;20026;-78
2022/07/01 14:55:23;;;;;;;11.45;6.75;;;;;;;;;;5013336;28;20037;-80
2022/07/01 14:57:49;;;;;;;11.00;6.88;;;;;;;;;;5013119;28;20030;-79
2022/07/01 15:00:15;;;;;;;10.45;7.53;;;;;;;;;;5012956;28;20033;-78
2022/07/01 15:02:41;;;;;;;8.98;6.95;;;;;;;;;;5012725;28;20030;-81
2022/07/01 15:05:08;;;;;;;11.63;6.93;;;;;;;;;;5012945;28;20030;-81
2022/07/01 15:07:34;;;;;;;9.32;7.82;;;;;;;;;;5012736;28;20087;-81
2022/07/01 15:10:01;;;;;;;10.25;7.43;;;;;;;;;;5030892;28;20116;-83
2022/07/01 15:12:27;;;;;;;10.38;7.80;;;;;;;;;;5032494;28;20484;-80
2022/07/01 15:14:53;;;;;;;9.93;7.97;;;;;;;;;;5032420;28;20029;-81
2022/07/01 15:17:20;;;;;;;10.80;6.78;;;;;;;;;;5032198;28;20064;-82
2022/07/01 15:19:46;;;;;;;10.57;8.00;;;;;;;;;;5032175;28;20072;-81
2022/07/01 15:22:12;;;;;;;16.98;9.90;;;;;;;;;;5032323;28;20036;-81
2022/07/01 15:24:38;;;;;;;6.38;5.80;;;;;;;;;;5032344;28;20034;-81
2022/07/01 15:27:05;;;;;;;5.50;4.90;;;;;;;;;;5014103;28;20493;-81
2022/07/01 15:29:31;;;;;;;5.30;4.80;;;;;;;;;;5032181;28;20029;-82
2022/07/01 15:31:57;;;;;;;6.45;5.72;;;;;;;;;;5032297;28;20036;-81
2022/07/01 15:34:23;;;;;;;8.32;5.45;;;;;;;;;;5032141;28;20029;-82
2022/07/01 15:36:50;;;;;;;8.00;5.15;;;;;;;;;;5032118;28;20033;-81
2022/07/01 15:39:16;;;;;;;5.93;4.78;;;;;;;;;;5032258;28;20060;-81
2022/07/01 15:41:43;;;;;;;4.90;4.35;;;;;;;;;;5032019;28;20049;-80
2022/07/01 15:44:09;;;;;;;6.43;5.38;;;;;;;;;;5032016;28;20151;-81
2022/07/01 15:46:35;;;;;;;4.55;4.07;;;;;;;;;;5031590;28;20049;-80
2022/07/01 15:49:02;;;;;;;9.88;5.85;;;;;;;;;;5031990;28;20377;-81
2022/07/01 15:51:28;;;;;;;6.07;4.97;;;;;;;;;;5031615;28;20115;-81
2022/07/01 15:54:00;;;;;;;11.20;9.25;;;;;;;;;;5014318;28;20033;-80
2022/07/01 15:56:27;;;;;;;6.65;5.95;;;;;;;;;;5031573;28;20113;-79
2022/07/01 15:58:53;;;;;;;5.78;5.22;;;;;;;;;;5031616;28;20032;-80
2022/07/01 16:01:20;;;;;;;9.13;6.45;;;;;;;;;;5031729;28;20029;-81
2022/07/01 16:03:49;;;;;;;11.73;6.65;;;;;;;;;;5013919;28;20385;-79
2022/07/01 16:06:17;;;;;;;6.35;5.72;;;;;;;;;;5031773;28;20029;-79
2022/07/01 16:08:49;;;;;;;7.60;5.93;;;;;;;;;;5031223;28;20041;-79
2022/07/01 16:11:17;;;;;;;7.43;5.15;;;;;;;;;;5031604;28;20057;-79
2022/07/01 16:13:51;;;;;;;8.77;5.32;;;;;;;;;;5013910;28;20074;-79
2022/07/01 16:16:21;;;;;;;19.92;9.85;;;;;;;;;;5031495;28;20025;-79
2022/07/01 16:18:48;;;;;;;7.75;5.20;;;;;;;;;;5013884;28;20029;-79
2022/07/01 16:21:15;;;;;;;12.70;7.45;;;;;;;;;;5031397;28;20096;-78
2022/07/01 16:23:42;;;;;;;12.27;7.97;;;;;;;;;;5031480;28;20040;-78
2022/07/01 16:26:10;;;;;;;9.65;7.22;;;;;;;;;;5031640;28;20060;-78
2022/07/01 16:28:37;;;;;;;15.77;11.32;;;;;;;;;;5031484;28;20507;-79
2022/07/01 16:31:06;;;;;;;17.02;11.48;;;;;;;;;;5031176;28;20575;-78
2022/07/01 16:33:32;;;;;;;8.25;6.90;;;;;;;;;;5031573;28;20468;-78
2022/07/01 16:36:13;;;;;;;9.85;7.57;;;;;;;;;;5031359;28;20040;-79
2022/07/01 16:38:58;;;;;;;14.13;10.85;;;;;;;;;;5031649;28;20025;-78
2022/07/01 16:41:43;;;;;;;12.18;8.48;;;;;;;;;;5035471;28;20179;-79
2022/07/01 16:44:11;;;;;;;10.45;7.53;;;;;;;;;;5035717;28;20026;-79
2022/07/01 16:46:39;;;;;;;10.88;8.23;;;;;;;;;;5035384;28;20029;-80
2022/07/01 16:49:19;;;;;;;8.68;7.03;;;;;;;;;;5035355;28;20091;-79
2022/07/01 16:51:49;;;;;;;8.30;7.50;;;;;;;;;;5035521;28;20021;-79
2022/07/01 16:54:19;;;;;;;14.60;10.38;;;;;;;;;;5035344;28;20534;-79
2022/07/01 16:56:46;;;;;;;8.85;7.93;;;;;;;;;;5035489;28;20022;-78
2022/07/01 16:59:13;;;;;;;13.38;9.85;;;;;;;;;;5035252;28;20493;-79
2022/07/01 17:01:40;;;;;;;11.93;10.13;;;;;;;;;;5035237;28;20104;-79
2022/07/01 17:04:09;;;;;;;13.55;10.05;;;;;;;;;;5035102;28;20043;-79
2022/07/01 17:06:36;;;;;;;13.20;9.98;;;;;;;;;;5035149;28;20441;-80
2022/07/01 17:09:02;;;;;;;13.85;10.15;;;;;;;;;;5035113;28;20050;-79
2022/07/01 17:11:29;;;;;;;11.35;7.70;;;;;;;;;;5035333;28;20480;-79
2022/07/01 17:13:58;;;;;;;9.98;8.00;;;;;;;;;;5035143;28;20026;-79
2022/07/01 17:16:26;;;;;;;15.27;11.45;;;;;;;;;;5017750;28;20041;-80
2022/07/01 17:18:53;;;;;;;9.00;7.82;;;;;;;;;;5017541;28;20036;-79
2022/07/01 17:21:22;;;;;;;14.50;10.25;;;;;;;;;;5035097;28;20033;-79
2022/07/01 17:23:48;;;;;;;10.73;8.63;;;;;;;;;;5017465;28;20033;-79
2022/07/01 17:26:17;;;;;;;9.85;7.75;;;;;;;;;;5034775;28;20376;-79
2022/07/01 17:28:43;;;;;;;8.30;6.70;;;;;;;;;;5034901;28;20037;-79
2022/07/01 17:31:19;;;;;;;16.58;14.88;;;;;;;;;;5017127;28;20030;-80
2022/07/01 17:33:46;;;;;;;18.75;14.98;;;;;;;;;;5035211;28;20029;-79
2022/07/01 17:36:18;;;;;;;14.02;10.57;;;;;;;;;;5016898;28;20417;-79
2022/07/01 17:38:46;;;;;;;18.65;16.75;;;;;;;;;;5034752;28;20029;-79
2022/07/01 17:41:15;;;;;;;10.45;8.75;;;;;;;;;;5034762;28;20357;-80
2022/07/01 17:43:43;;;;;;;13.82;10.70;;;;;;;;;;5034726;28;20064;-79
2022/07/01 17:46:10;;;;;;;14.30;10.15;;;;;;;;;;5034695;28;20033;-79
2022/07/01 17:48:39;;;;;;;20.52;13.00;;;;;;;;;;5017091;28;20034;-79
2022/07/01 17:51:08;;;;;;;9.95;8.02;;;;;;;;;;5015994;28;20401;-79
2022/07/01 17:53:35;;;;;;;20.08;14.45;;;;;;;;;;5034520;28;20029;-78
2022/07/01 17:56:03;;;;;;;10.02;7.63;;;;;;;;;;5034156;28;20484;-79
2022/07/01 17:58:30;;;;;;;18.48;12.13;;;;;;;;;;5034413;28;20028;-79
2022/07/01 18:00:56;;;;;;;11.07;8.73;;;;;;;;;;5034205;28;20022;-79
2022/07/01 18:03:22;;;;;;;17.67;12.02;;;;;;;;;;5034391;28;20032;-80
2022/07/01 18:05:49;;;;;;;16.27;10.82;;;;;;;;;;5034226;28;20021;-79
2022/07/01 18:08:16;;;;;;;20.98;15.05;;;;;;;;;;5013172;28;20053;-79
2022/07/01 18:10:47;;;;;;;17.70;10.80;;;;;;;;;;5014447;28;20477;-79
2022/07/01 18:13:19;;;;;;;26.02;15.10;;;;;;;;;;5014408;28;20033;-79
2022/07/01 18:15:45;;;;;;;20.95;14.82;;;;;;;;;;5014245;28;20033;-79
2022/07/01 18:18:16;;;;;;;17.42;10.90;;;;;;;;;;5012989;28;20036;-79
2022/07/01 18:21:01;;;;;;;27.58;16.60;;;;;;;;;;5014215;28;20030;-79
2022/07/01 18:23:33;;;;;;;11.18;8.27;;;;;;;;;;5013884;28;20481;-79
2022/07/01 18:26:01;;;;;;;16.83;10.25;;;;;;;;;;5014231;28;20057;-79
2022/07/01 18:28:30;;;;;;;18.88;12.93;;;;;;;;;;5013949;28;20042;-79
2022/07/01 18:30:58;;;;;;;14.02;9.30;;;;;;;;;;5012958;28;20362;-79
2022/07/01 18:33:26;;;;;;;15.68;11.02;;;;;;;;;;5012730;28;20056;-79
2022/07/01 18:35:54;;;;;;;19.42;12.57;;;;;;;;;;5012634;28;20033;-79
2022/07/01 18:38:21;;;;;;;16.85;10.60;;;;;;;;;;5012808;28;20017;-79
2022/07/01 18:40:48;;;;;;;22.58;15.18;;;;;;;;;;5012679;28;20028;-79
2022/07/01 18:43:14;;;;;;;9.55;8.55;;;;;;;;;;5012580;28;20033;-79
2022/07/01 18:45:40;;;;;;;20.00;13.10;;;;;;;;;;5013815;28;20038;-81
2022/07/01 18:48:06;;;;;;;26.95;15.63;;;;;;;;;;5013628;28;20045;-80
2022/07/01 18:50:33;;;;;;;24.20;15.93;;;;;;;;;;5012243;28;20029;-80
2022/07/01 18:53:00;;;;;;;15.23;9.75;;;;;;;;;;5013624;28;20025;-80
2022/07/01 18:55:27;;;;;;;12.02;10.13;;;;;;;;;;5013469;28;20047;-80
2022/07/01 18:57:53;;;;;;;16.60;8.20;;;;;;;;;;5013599;28;20038;-79
2022/07/01 19:00:27;;;;;;;12.25;9.75;;;;;;;;;;5013546;28;20125;-79
2022/07/01 19:02:54;;;;;;;23.38;16.15;;;;;;;;;;5012714;28;20026;-80
2022/07/01 19:05:20;;;;;;;14.57;10.48;;;;;;;;;;5013309;28;20058;-80